sensor_id;sensor_type;location;lat;lon;timestamp;P1;durP1;ratioP1;P2;durP2;ratioP2
30472;SDS011;17263;48.160;11.452;2023-12-07T00:02:16;16.87;;;13.83;;
30472;SDS011;17263;48.160;11.452;2023-12-07T00:04:42;16.27;;;13.27;;
30472;SDS011;17263;48.160;11.452;2023-12-07T00:07:08;16.57;;;14.10;;
30472;SDS011;17263;48.160;11.452;2023-12-07T00:09:34;15.50;;;12.63;;
30472;SDS011;17263;48.160;11.452;2023-12-07T00:12:00;15.70;;;13.10;;
30472;SDS011;17263;48.160;11.452;2023-12-07T00:14:26;14.60;;;12.63;;
30472;SDS011;17263;48.160;11.452;2023-12-07T00:16:52;15.97;;;13.00;;
30472;SDS011;17263;48.160;11.452;2023-12-07T00:19:19;15.40;;;12.47;;
30472;SDS011;17263;48.160;11.452;2023-12-07T00:21:45;15.10;;;13.03;;
30472;SDS011;17263;48.160;11.452;2023-12-07T00:24:11;16.57;;;13.80;;
30472;SDS011;17263;48.160;11.452;2023-12-07T00:26:37;16.77;;;13.50;;
30472;SDS011;17263;48.160;11.452;2023-12-07T00:29:03;15.57;;;13.53;;
30472;SDS011;17263;48.160;11.452;2023-12-07T00:31:29;16.63;;;13.87;;
30472;SDS011;17263;48.160;11.452;2023-12-07T00:33:55;15.93;;;13.20;;
30472;SDS011;17263;48.160;11.452;2023-12-07T00:36:21;16.80;;;13.80;;
30472;SDS011;17263;48.160;11.452;2023-12-07T00:38:47;16.63;;;13.50;;
30472;SDS011;17263;48.160;11.452;2023-12-07T00:41:13;15.87;;;13.57;;
30472;SDS011;17263;48.160;11.452;2023-12-07T00:43:39;16.07;;;13.77;;
30472;SDS011;17263;48.160;11.452;2023-12-07T00:46:08;17.10;;;13.47;;
30472;SDS011;17263;48.160;11.452;2023-12-07T00:48:34;15.97;;;13.83;;
30472;SDS011;17263;48.160;11.452;2023-12-07T00:51:00;16.17;;;14.27;;
30472;SDS011;17263;48.160;11.452;2023-12-07T00:53:26;18.00;;;14.87;;
30472;SDS011;17263;48.160;11.452;2023-12-07T00:55:52;19.37;;;15.30;;
30472;SDS011;17263;48.160;11.452;2023-12-07T00:58:18;17.53;;;15.13;;
30472;SDS011;17263;48.160;11.452;2023-12-07T01:00:44;18.30;;;16.13;;
30472;SDS011;17263;48.160;11.452;2023-12-07T01:03:10;17.20;;;15.27;;
30472;SDS011;17263;48.160;11.452;2023-12-07T01:05:36;19.03;;;15.87;;
30472;SDS011;17263;48.160;11.452;2023-12-07T01:08:02;17.00;;;15.13;;
30472;SDS011;17263;48.160;11.452;2023-12-07T01:10:28;18.57;;;15.87;;
30472;SDS011;17263;48.160;11.452;2023-12-07T01:12:54;20.00;;;15.50;;
30472;SDS011;17263;48.160;11.452;2023-12-07T01:15:20;20.73;;;16.33;;
30472;SDS011;17263;48.160;11.452;2023-12-07T01:17:46;19.53;;;15.83;;
30472;SDS011;17263;48.160;11.452;2023-12-07T01:20:12;18.57;;;15.33;;
30472;SDS011;17263;48.160;11.452;2023-12-07T01:22:39;19.53;;;15.97;;
30472;SDS011;17263;48.160;11.452;2023-12-07T01:25:06;21.40;;;16.50;;
30472;SDS011;17263;48.160;11.452;2023-12-07T01:27:33;19.27;;;16.00;;
30472;SDS011;17263;48.160;11.452;2023-12-07T01:29:59;19.00;;;16.27;;
30472;SDS011;17263;48.160;11.452;2023-12-07T01:32:26;21.10;;;16.23;;
30472;SDS011;17263;48.160;11.452;2023-12-07T01:34:52;20.97;;;16.27;;
30472;SDS011;17263;48.160;11.452;2023-12-07T01:37:18;19.50;;;16.07;;
30472;SDS011;17263;48.160;11.452;2023-12-07T01:39:44;21.47;;;16.23;;
30472;SDS011;17263;48.160;11.452;2023-12-07T01:42:10;19.47;;;16.70;;
30472;SDS011;17263;48.160;11.452;2023-12-07T01:44:38;20.63;;;15.93;;
30472;SDS011;17263;48.160;11.452;2023-12-07T01:47:04;19.27;;;16.50;;
30472;SDS011;17263;48.160;11.452;2023-12-07T01:49:33;20.67;;;16.63;;
30472;SDS011;17263;48.160;11.452;2023-12-07T01:52:01;20.97;;;16.33;;
30472;SDS011;17263;48.160;11.452;2023-12-07T01:54:28;20.10;;;16.93;;
30472;SDS011;17263;48.160;11.452;2023-12-07T01:56:55;18.93;;;16.30;;
30472;SDS011;17263;48.160;11.452;2023-12-07T01:59:22;21.83;;;16.67;;
30472;SDS011;17263;48.160;11.452;2023-12-07T02:01:48;20.30;;;17.13;;
30472;SDS011;17263;48.160;11.452;2023-12-07T02:04:14;19.73;;;16.23;;
30472;SDS011;17263;48.160;11.452;2023-12-07T02:06:40;20.93;;;16.87;;
30472;SDS011;17263;48.160;11.452;2023-12-07T02:09:07;19.83;;;16.47;;
30472;SDS011;17263;48.160;11.452;2023-12-07T02:11:33;21.47;;;17.27;;
30472;SDS011;17263;48.160;11.452;2023-12-07T02:13:59;20.77;;;17.57;;
30472;SDS011;17263;48.160;11.452;2023-12-07T02:19:17;21.43;;;17.07;;
30472;SDS011;17263;48.160;11.452;2023-12-07T02:22:08;20.80;;;17.33;;
30472;SDS011;17263;48.160;11.452;2023-12-07T02:24:38;22.13;;;16.63;;
30472;SDS011;17263;48.160;11.452;2023-12-07T02:27:15;22.10;;;16.63;;
30472;SDS011;17263;48.160;11.452;2023-12-07T02:29:42;21.83;;;17.23;;
30472;SDS011;17263;48.160;11.452;2023-12-07T02:32:08;19.70;;;17.03;;
30472;SDS011;17263;48.160;11.452;2023-12-07T02:34:34;20.50;;;16.43;;
30472;SDS011;17263;48.160;11.452;2023-12-07T02:37:00;25.90;;;17.97;;
30472;SDS011;17263;48.160;11.452;2023-12-07T02:39:28;22.17;;;17.20;;
30472;SDS011;17263;48.160;11.452;2023-12-07T02:41:54;22.37;;;16.83;;
30472;SDS011;17263;48.160;11.452;2023-12-07T02:44:21;23.67;;;18.63;;
30472;SDS011;17263;48.160;11.452;2023-12-07T02:46:47;21.87;;;17.33;;
30472;SDS011;17263;48.160;11.452;2023-12-07T02:49:14;21.73;;;17.43;;
30472;SDS011;17263;48.160;11.452;2023-12-07T02:51:40;22.97;;;17.77;;
30472;SDS011;17263;48.160;11.452;2023-12-07T02:54:06;22.33;;;16.87;;
30472;SDS011;17263;48.160;11.452;2023-12-07T02:56:32;20.77;;;16.60;;
30472;SDS011;17263;48.160;11.452;2023-12-07T02:58:58;22.33;;;17.63;;
30472;SDS011;17263;48.160;11.452;2023-12-07T03:01:24;22.70;;;17.80;;
30472;SDS011;17263;48.160;11.452;2023-12-07T03:03:50;20.83;;;16.43;;
30472;SDS011;17263;48.160;11.452;2023-12-07T03:06:16;22.57;;;17.27;;
30472;SDS011;17263;48.160;11.452;2023-12-07T03:08:42;22.20;;;16.47;;
30472;SDS011;17263;48.160;11.452;2023-12-07T03:11:08;20.07;;;16.73;;
30472;SDS011;17263;48.160;11.452;2023-12-07T03:13:34;23.83;;;17.40;;
30472;SDS011;17263;48.160;11.452;2023-12-07T03:16:00;22.97;;;17.70;;
30472;SDS011;17263;48.160;11.452;2023-12-07T03:18:26;25.60;;;17.77;;
30472;SDS011;17263;48.160;11.452;2023-12-07T03:20:52;23.40;;;17.47;;
30472;SDS011;17263;48.160;11.452;2023-12-07T03:23:18;21.47;;;16.90;;
30472;SDS011;17263;48.160;11.452;2023-12-07T03:25:44;20.83;;;17.23;;
30472;SDS011;17263;48.160;11.452;2023-12-07T03:28:11;21.63;;;16.07;;
30472;SDS011;17263;48.160;11.452;2023-12-07T03:30:37;20.23;;;16.23;;
30472;SDS011;17263;48.160;11.452;2023-12-07T03:33:03;21.50;;;16.37;;
30472;SDS011;17263;48.160;11.452;2023-12-07T03:35:29;22.17;;;16.60;;
30472;SDS011;17263;48.160;11.452;2023-12-07T03:37:55;21.70;;;17.30;;
30472;SDS011;17263;48.160;11.452;2023-12-07T03:40:21;20.10;;;16.40;;
30472;SDS011;17263;48.160;11.452;2023-12-07T03:42:47;18.37;;;15.47;;
30472;SDS011;17263;48.160;11.452;2023-12-07T03:45:13;18.80;;;15.30;;
30472;SDS011;17263;48.160;11.452;2023-12-07T03:47:39;21.50;;;16.80;;
30472;SDS011;17263;48.160;11.452;2023-12-07T03:50:06;22.43;;;17.30;;
30472;SDS011;17263;48.160;11.452;2023-12-07T03:52:32;22.60;;;16.70;;
30472;SDS011;17263;48.160;11.452;2023-12-07T03:54:58;20.93;;;16.27;;
30472;SDS011;17263;48.160;11.452;2023-12-07T03:57:24;19.93;;;17.07;;
30472;SDS011;17263;48.160;11.452;2023-12-07T03:59:50;19.50;;;16.23;;
30472;SDS011;17263;48.160;11.452;2023-12-07T04:02:17;19.07;;;15.47;;
30472;SDS011;17263;48.160;11.452;2023-12-07T04:04:43;18.97;;;16.00;;
30472;SDS011;17263;48.160;11.452;2023-12-07T04:07:09;18.93;;;15.87;;
30472;SDS011;17263;48.160;11.452;2023-12-07T04:09:35;22.37;;;16.10;;
30472;SDS011;17263;48.160;11.452;2023-12-07T04:12:01;21.50;;;16.27;;
30472;SDS011;17263;48.160;11.452;2023-12-07T04:14:28;19.97;;;16.30;;
30472;SDS011;17263;48.160;11.452;2023-12-07T04:16:54;19.93;;;15.37;;
30472;SDS011;17263;48.160;11.452;2023-12-07T04:19:20;19.00;;;15.67;;
30472;SDS011;17263;48.160;11.452;2023-12-07T04:21:46;21.37;;;16.00;;
30472;SDS011;17263;48.160;11.452;2023-12-07T04:24:12;19.33;;;14.77;;
30472;SDS011;17263;48.160;11.452;2023-12-07T04:26:38;19.20;;;15.23;;
30472;SDS011;17263;48.160;11.452;2023-12-07T04:29:04;19.80;;;15.23;;
30472;SDS011;17263;48.160;11.452;2023-12-07T04:31:30;23.60;;;16.23;;
30472;SDS011;17263;48.160;11.452;2023-12-07T04:33:56;18.07;;;14.70;;
30472;SDS011;17263;48.160;11.452;2023-12-07T04:36:22;20.03;;;15.10;;
30472;SDS011;17263;48.160;11.452;2023-12-07T04:38:48;18.60;;;14.53;;
30472;SDS011;17263;48.160;11.452;2023-12-07T04:41:14;19.93;;;14.40;;
30472;SDS011;17263;48.160;11.452;2023-12-07T04:43:40;18.13;;;14.53;;
30472;SDS011;17263;48.160;11.452;2023-12-07T04:46:06;19.20;;;14.50;;
30472;SDS011;17263;48.160;11.452;2023-12-07T04:48:32;17.80;;;14.10;;
30472;SDS011;17263;48.160;11.452;2023-12-07T04:50:58;17.93;;;14.57;;
30472;SDS011;17263;48.160;11.452;2023-12-07T04:53:24;17.37;;;13.93;;
30472;SDS011;17263;48.160;11.452;2023-12-07T04:55:50;18.43;;;14.27;;
30472;SDS011;17263;48.160;11.452;2023-12-07T04:58:16;17.07;;;14.13;;
30472;SDS011;17263;48.160;11.452;2023-12-07T05:00:42;17.63;;;14.43;;
30472;SDS011;17263;48.160;11.452;2023-12-07T05:03:08;18.60;;;13.30;;
30472;SDS011;17263;48.160;11.452;2023-12-07T05:05:34;18.33;;;13.93;;
30472;SDS011;17263;48.160;11.452;2023-12-07T05:08:01;17.70;;;13.90;;
30472;SDS011;17263;48.160;11.452;2023-12-07T05:10:27;19.07;;;13.07;;
30472;SDS011;17263;48.160;11.452;2023-12-07T05:12:53;16.63;;;13.13;;
30472;SDS011;17263;48.160;11.452;2023-12-07T05:15:20;17.73;;;13.33;;
30472;SDS011;17263;48.160;11.452;2023-12-07T05:17:46;15.83;;;13.07;;
30472;SDS011;17263;48.160;11.452;2023-12-07T05:20:12;17.23;;;12.13;;
30472;SDS011;17263;48.160;11.452;2023-12-07T05:22:38;17.57;;;12.87;;
30472;SDS011;17263;48.160;11.452;2023-12-07T05:25:04;15.87;;;12.37;;
30472;SDS011;17263;48.160;11.452;2023-12-07T05:27:30;17.00;;;12.70;;
30472;SDS011;17263;48.160;11.452;2023-12-07T05:29:56;17.03;;;12.87;;
30472;SDS011;17263;48.160;11.452;2023-12-07T05:32:22;17.97;;;13.20;;
30472;SDS011;17263;48.160;11.452;2023-12-07T05:34:48;15.80;;;12.87;;
30472;SDS011;17263;48.160;11.452;2023-12-07T05:37:16;16.10;;;12.47;;
30472;SDS011;17263;48.160;11.452;2023-12-07T05:39:42;16.00;;;13.33;;
30472;SDS011;17263;48.160;11.452;2023-12-07T05:42:08;15.67;;;12.63;;
30472;SDS011;17263;48.160;11.452;2023-12-07T05:44:34;16.17;;;11.93;;
30472;SDS011;17263;48.160;11.452;2023-12-07T05:47:00;15.33;;;11.83;;
30472;SDS011;17263;48.160;11.452;2023-12-07T05:49:26;14.97;;;11.70;;
30472;SDS011;17263;48.160;11.452;2023-12-07T05:51:52;17.93;;;13.80;;
30472;SDS011;17263;48.160;11.452;2023-12-07T05:54:18;14.47;;;11.93;;
30472;SDS011;17263;48.160;11.452;2023-12-07T05:56:46;15.57;;;12.07;;
30472;SDS011;17263;48.160;11.452;2023-12-07T05:59:12;14.80;;;12.30;;
30472;SDS011;17263;48.160;11.452;2023-12-07T06:01:38;16.43;;;12.23;;
30472;SDS011;17263;48.160;11.452;2023-12-07T06:04:05;17.20;;;12.80;;
30472;SDS011;17263;48.160;11.452;2023-12-07T06:06:34;17.43;;;12.23;;
30472;SDS011;17263;48.160;11.452;2023-12-07T06:09:00;18.40;;;14.10;;
30472;SDS011;17263;48.160;11.452;2023-12-07T06:11:26;16.27;;;12.37;;
30472;SDS011;17263;48.160;11.452;2023-12-07T06:13:52;16.50;;;12.70;;
30472;SDS011;17263;48.160;11.452;2023-12-07T06:16:18;16.43;;;12.63;;
30472;SDS011;17263;48.160;11.452;2023-12-07T06:18:44;15.63;;;12.47;;
30472;SDS011;17263;48.160;11.452;2023-12-07T06:21:10;15.33;;;12.57;;
30472;SDS011;17263;48.160;11.452;2023-12-07T06:23:36;17.07;;;13.00;;
30472;SDS011;17263;48.160;11.452;2023-12-07T06:26:02;15.33;;;12.30;;
30472;SDS011;17263;48.160;11.452;2023-12-07T06:28:30;16.17;;;12.13;;
30472;SDS011;17263;48.160;11.452;2023-12-07T06:30:57;15.27;;;11.27;;
30472;SDS011;17263;48.160;11.452;2023-12-07T06:33:25;14.57;;;11.90;;
30472;SDS011;17263;48.160;11.452;2023-12-07T06:35:51;18.33;;;12.87;;
30472;SDS011;17263;48.160;11.452;2023-12-07T06:38:17;17.63;;;12.27;;
30472;SDS011;17263;48.160;11.452;2023-12-07T06:40:43;16.10;;;11.87;;
30472;SDS011;17263;48.160;11.452;2023-12-07T06:43:09;16.17;;;12.30;;
30472;SDS011;17263;48.160;11.452;2023-12-07T06:45:35;14.60;;;11.00;;
30472;SDS011;17263;48.160;11.452;2023-12-07T06:48:01;14.53;;;11.93;;
30472;SDS011;17263;48.160;11.452;2023-12-07T06:50:27;16.73;;;12.17;;
30472;SDS011;17263;48.160;11.452;2023-12-07T06:52:53;17.57;;;12.13;;
30472;SDS011;17263;48.160;11.452;2023-12-07T06:55:19;13.17;;;11.07;;
30472;SDS011;17263;48.160;11.452;2023-12-07T06:57:45;16.30;;;11.80;;
30472;SDS011;17263;48.160;11.452;2023-12-07T07:00:11;14.73;;;11.43;;
30472;SDS011;17263;48.160;11.452;2023-12-07T07:02:38;17.20;;;11.80;;
30472;SDS011;17263;48.160;11.452;2023-12-07T07:05:04;16.63;;;12.03;;
30472;SDS011;17263;48.160;11.452;2023-12-07T07:07:31;14.93;;;11.70;;
30472;SDS011;17263;48.160;11.452;2023-12-07T07:09:58;17.13;;;11.87;;
30472;SDS011;17263;48.160;11.452;2023-12-07T07:12:24;13.87;;;11.30;;
30472;SDS011;17263;48.160;11.452;2023-12-07T07:14:50;16.33;;;11.50;;
30472;SDS011;17263;48.160;11.452;2023-12-07T07:17:16;21.33;;;17.60;;
30472;SDS011;17263;48.160;11.452;2023-12-07T07:19:43;31.77;;;28.47;;
30472;SDS011;17263;48.160;11.452;2023-12-07T07:22:09;44.00;;;39.83;;
30472;SDS011;17263;48.160;11.452;2023-12-07T07:24:35;46.17;;;41.77;;
30472;SDS011;17263;48.160;11.452;2023-12-07T07:27:01;44.60;;;40.17;;
30472;SDS011;17263;48.160;11.452;2023-12-07T07:29:28;37.27;;;33.50;;
30472;SDS011;17263;48.160;11.452;2023-12-07T07:31:54;31.33;;;28.30;;
30472;SDS011;17263;48.160;11.452;2023-12-07T07:34:21;26.23;;;23.60;;
30472;SDS011;17263;48.160;11.452;2023-12-07T07:36:47;21.83;;;19.53;;
30472;SDS011;17263;48.160;11.452;2023-12-07T07:39:15;21.17;;;18.17;;
30472;SDS011;17263;48.160;11.452;2023-12-07T07:41:41;19.30;;;17.27;;
30472;SDS011;17263;48.160;11.452;2023-12-07T07:44:07;21.00;;;17.50;;
30472;SDS011;17263;48.160;11.452;2023-12-07T07:46:33;19.23;;;15.40;;
30472;SDS011;17263;48.160;11.452;2023-12-07T07:48:59;20.83;;;16.87;;
30472;SDS011;17263;48.160;11.452;2023-12-07T07:51:25;18.70;;;15.60;;
30472;SDS011;17263;48.160;11.452;2023-12-07T07:53:51;17.97;;;15.17;;
30472;SDS011;17263;48.160;11.452;2023-12-07T07:56:17;18.40;;;15.10;;
30472;SDS011;17263;48.160;11.452;2023-12-07T07:58:43;18.50;;;14.97;;
30472;SDS011;17263;48.160;11.452;2023-12-07T08:01:09;18.47;;;14.03;;
30472;SDS011;17263;48.160;11.452;2023-12-07T08:03:35;18.53;;;13.70;;
30472;SDS011;17263;48.160;11.452;2023-12-07T08:06:01;15.53;;;13.27;;
30472;SDS011;17263;48.160;11.452;2023-12-07T08:08:27;17.27;;;13.10;;
30472;SDS011;17263;48.160;11.452;2023-12-07T08:10:53;16.17;;;13.40;;
30472;SDS011;17263;48.160;11.452;2023-12-07T08:13:19;18.20;;;14.10;;
30472;SDS011;17263;48.160;11.452;2023-12-07T08:15:45;17.03;;;13.50;;
30472;SDS011;17263;48.160;11.452;2023-12-07T08:18:11;15.93;;;13.67;;
30472;SDS011;17263;48.160;11.452;2023-12-07T08:20:37;17.43;;;14.97;;
30472;SDS011;17263;48.160;11.452;2023-12-07T08:23:03;20.27;;;12.90;;
30472;SDS011;17263;48.160;11.452;2023-12-07T08:25:29;16.67;;;13.00;;
30472;SDS011;17263;48.160;11.452;2023-12-07T08:27:57;15.80;;;12.67;;
30472;SDS011;17263;48.160;11.452;2023-12-07T08:30:23;17.40;;;12.43;;
30472;SDS011;17263;48.160;11.452;2023-12-07T08:32:49;14.80;;;11.63;;
30472;SDS011;17263;48.160;11.452;2023-12-07T08:35:15;14.00;;;10.57;;
30472;SDS011;17263;48.160;11.452;2023-12-07T08:37:41;13.07;;;10.43;;
30472;SDS011;17263;48.160;11.452;2023-12-07T08:40:07;12.67;;;10.67;;
30472;SDS011;17263;48.160;11.452;2023-12-07T08:42:36;11.87;;;10.60;;
30472;SDS011;17263;48.160;11.452;2023-12-07T08:45:02;12.90;;;10.97;;
30472;SDS011;17263;48.160;11.452;2023-12-07T08:47:29;13.43;;;10.43;;
30472;SDS011;17263;48.160;11.452;2023-12-07T08:49:57;17.13;;;12.30;;
30472;SDS011;17263;48.160;11.452;2023-12-07T08:52:23;17.73;;;13.80;;
30472;SDS011;17263;48.160;11.452;2023-12-07T08:54:49;15.50;;;11.67;;
30472;SDS011;17263;48.160;11.452;2023-12-07T08:57:15;15.00;;;10.97;;
30472;SDS011;17263;48.160;11.452;2023-12-07T08:59:42;14.70;;;10.83;;
30472;SDS011;17263;48.160;11.452;2023-12-07T09:02:08;15.00;;;11.27;;
30472;SDS011;17263;48.160;11.452;2023-12-07T09:04:34;13.00;;;10.17;;
30472;SDS011;17263;48.160;11.452;2023-12-07T09:07:01;11.83;;;9.90;;
30472;SDS011;17263;48.160;11.452;2023-12-07T09:09:27;11.13;;;9.77;;
30472;SDS011;17263;48.160;11.452;2023-12-07T09:11:53;10.90;;;9.80;;
30472;SDS011;17263;48.160;11.452;2023-12-07T09:14:19;10.87;;;9.30;;
30472;SDS011;17263;48.160;11.452;2023-12-07T09:16:45;10.27;;;8.43;;
30472;SDS011;17263;48.160;11.452;2023-12-07T09:19:12;11.13;;;9.00;;
30472;SDS011;17263;48.160;11.452;2023-12-07T09:21:39;10.60;;;9.30;;
30472;SDS011;17263;48.160;11.452;2023-12-07T09:24:06;10.80;;;8.70;;
30472;SDS011;17263;48.160;11.452;2023-12-07T09:26:32;9.60;;;8.50;;
30472;SDS011;17263;48.160;11.452;2023-12-07T09:28:58;9.13;;;8.10;;
30472;SDS011;17263;48.160;11.452;2023-12-07T09:31:24;9.77;;;8.30;;
30472;SDS011;17263;48.160;11.452;2023-12-07T09:33:50;8.13;;;7.30;;
30472;SDS011;17263;48.160;11.452;2023-12-07T09:36:19;7.47;;;6.67;;
30472;SDS011;17263;48.160;11.452;2023-12-07T09:38:47;8.53;;;7.47;;
30472;SDS011;17263;48.160;11.452;2023-12-07T09:41:13;7.87;;;6.83;;
30472;SDS011;17263;48.160;11.452;2023-12-07T09:43:39;9.23;;;7.47;;
30472;SDS011;17263;48.160;11.452;2023-12-07T09:46:05;11.57;;;8.13;;
30472;SDS011;17263;48.160;11.452;2023-12-07T09:48:32;7.77;;;6.57;;
30472;SDS011;17263;48.160;11.452;2023-12-07T09:50:59;8.87;;;7.43;;
30472;SDS011;17263;48.160;11.452;2023-12-07T09:53:27;7.07;;;5.93;;
30472;SDS011;17263;48.160;11.452;2023-12-07T09:55:55;7.43;;;5.57;;
30472;SDS011;17263;48.160;11.452;2023-12-07T09:58:21;6.10;;;4.90;;
30472;SDS011;17263;48.160;11.452;2023-12-07T10:00:47;4.57;;;3.90;;
30472;SDS011;17263;48.160;11.452;2023-12-07T10:03:20;5.80;;;3.90;;
30472;SDS011;17263;48.160;11.452;2023-12-07T10:05:53;7.40;;;5.37;;
30472;SDS011;17263;48.160;11.452;2023-12-07T10:08:28;6.57;;;5.47;;
30472;SDS011;17263;48.160;11.452;2023-12-07T10:11:07;8.53;;;4.90;;
30472;SDS011;17263;48.160;11.452;2023-12-07T10:13:35;5.53;;;3.97;;
30472;SDS011;17263;48.160;11.452;2023-12-07T10:16:07;4.07;;;3.40;;
30472;SDS011;17263;48.160;11.452;2023-12-07T10:18:35;5.07;;;3.80;;
30472;SDS011;17263;48.160;11.452;2023-12-07T10:21:01;5.63;;;3.50;;
30472;SDS011;17263;48.160;11.452;2023-12-07T10:23:28;4.63;;;3.20;;
30472;SDS011;17263;48.160;11.452;2023-12-07T10:25:57;3.93;;;3.47;;
30472;SDS011;17263;48.160;11.452;2023-12-07T10:28:25;3.23;;;2.93;;
30472;SDS011;17263;48.160;11.452;2023-12-07T10:30:51;3.40;;;3.07;;
30472;SDS011;17263;48.160;11.452;2023-12-07T10:33:19;3.30;;;3.00;;
30472;SDS011;17263;48.160;11.452;2023-12-07T10:35:46;5.00;;;3.43;;
30472;SDS011;17263;48.160;11.452;2023-12-07T10:38:14;3.90;;;2.33;;
30472;SDS011;17263;48.160;11.452;2023-12-07T10:40:40;2.77;;;2.33;;
30472;SDS011;17263;48.160;11.452;2023-12-07T10:43:07;2.67;;;2.33;;
30472;SDS011;17263;48.160;11.452;2023-12-07T10:45:34;3.10;;;2.50;;
30472;SDS011;17263;48.160;11.452;2023-12-07T10:48:07;3.63;;;2.70;;
30472;SDS011;17263;48.160;11.452;2023-12-07T10:50:34;2.87;;;2.23;;
30472;SDS011;17263;48.160;11.452;2023-12-07T10:53:11;2.80;;;2.23;;
30472;SDS011;17263;48.160;11.452;2023-12-07T10:55:47;2.53;;;2.30;;
30472;SDS011;17263;48.160;11.452;2023-12-07T10:58:18;2.50;;;2.30;;
30472;SDS011;17263;48.160;11.452;2023-12-07T11:00:45;2.90;;;2.50;;
30472;SDS011;17263;48.160;11.452;2023-12-07T11:03:14;3.83;;;2.60;;
30472;SDS011;17263;48.160;11.452;2023-12-07T11:05:46;2.43;;;2.20;;
30472;SDS011;17263;48.160;11.452;2023-12-07T11:08:36;2.60;;;2.30;;
30472;SDS011;17263;48.160;11.452;2023-12-07T11:11:02;3.27;;;2.57;;
30472;SDS011;17263;48.160;11.452;2023-12-07T11:13:36;3.00;;;2.67;;
30472;SDS011;17263;48.160;11.452;2023-12-07T11:16:03;2.53;;;2.30;;
30472;SDS011;17263;48.160;11.452;2023-12-07T11:18:30;2.67;;;2.37;;
30472;SDS011;17263;48.160;11.452;2023-12-07T11:20:56;4.33;;;2.70;;
30472;SDS011;17263;48.160;11.452;2023-12-07T11:23:23;3.00;;;2.70;;
30472;SDS011;17263;48.160;11.452;2023-12-07T11:25:50;3.67;;;2.40;;
30472;SDS011;17263;48.160;11.452;2023-12-07T11:28:17;3.00;;;2.70;;
30472;SDS011;17263;48.160;11.452;2023-12-07T11:30:46;3.00;;;2.80;;
30472;SDS011;17263;48.160;11.452;2023-12-07T11:33:14;4.13;;;2.50;;
30472;SDS011;17263;48.160;11.452;2023-12-07T11:38:25;3.70;;;2.83;;
30472;SDS011;17263;48.160;11.452;2023-12-07T11:40:51;3.97;;;2.77;;
30472;SDS011;17263;48.160;11.452;2023-12-07T11:46:09;3.40;;;3.00;;
30472;SDS011;17263;48.160;11.452;2023-12-07T11:48:36;3.83;;;3.00;;
30472;SDS011;17263;48.160;11.452;2023-12-07T11:51:03;4.30;;;3.20;;
30472;SDS011;17263;48.160;11.452;2023-12-07T11:53:32;3.70;;;2.63;;
30472;SDS011;17263;48.160;11.452;2023-12-07T11:56:02;4.27;;;2.97;;
30472;SDS011;17263;48.160;11.452;2023-12-07T11:58:31;5.30;;;3.43;;
30472;SDS011;17263;48.160;11.452;2023-12-07T12:00:58;3.23;;;2.87;;
30472;SDS011;17263;48.160;11.452;2023-12-07T12:03:24;3.23;;;2.93;;
30472;SDS011;17263;48.160;11.452;2023-12-07T12:05:54;3.10;;;2.70;;
30472;SDS011;17263;48.160;11.452;2023-12-07T12:08:21;3.20;;;2.60;;
30472;SDS011;17263;48.160;11.452;2023-12-07T12:10:48;3.13;;;2.47;;
30472;SDS011;17263;48.160;11.452;2023-12-07T12:13:17;2.93;;;2.63;;
30472;SDS011;17263;48.160;11.452;2023-12-07T12:15:44;2.90;;;2.60;;
30472;SDS011;17263;48.160;11.452;2023-12-07T12:18:12;5.40;;;3.10;;
30472;SDS011;17263;48.160;11.452;2023-12-07T12:20:39;3.10;;;2.70;;
30472;SDS011;17263;48.160;11.452;2023-12-07T12:23:05;3.93;;;3.03;;
30472;SDS011;17263;48.160;11.452;2023-12-07T12:25:31;3.17;;;2.77;;
30472;SDS011;17263;48.160;11.452;2023-12-07T12:28:02;2.93;;;2.57;;
30472;SDS011;17263;48.160;11.452;2023-12-07T12:30:30;3.40;;;2.50;;
30472;SDS011;17263;48.160;11.452;2023-12-07T12:32:56;3.67;;;2.83;;
30472;SDS011;17263;48.160;11.452;2023-12-07T12:35:23;4.10;;;2.97;;
30472;SDS011;17263;48.160;11.452;2023-12-07T12:37:50;2.77;;;2.50;;
30472;SDS011;17263;48.160;11.452;2023-12-07T12:40:17;2.93;;;2.50;;
30472;SDS011;17263;48.160;11.452;2023-12-07T12:42:45;4.97;;;2.70;;
30472;SDS011;17263;48.160;11.452;2023-12-07T12:45:13;3.60;;;2.43;;
30472;SDS011;17263;48.160;11.452;2023-12-07T12:47:43;3.20;;;2.77;;
30472;SDS011;17263;48.160;11.452;2023-12-07T12:53:02;3.43;;;2.97;;
30472;SDS011;17263;48.160;11.452;2023-12-07T12:55:35;3.60;;;3.07;;
30472;SDS011;17263;48.160;11.452;2023-12-07T12:58:04;3.07;;;2.73;;
30472;SDS011;17263;48.160;11.452;2023-12-07T13:00:32;5.63;;;2.87;;
30472;SDS011;17263;48.160;11.452;2023-12-07T13:02:59;3.07;;;2.70;;
30472;SDS011;17263;48.160;11.452;2023-12-07T13:05:26;4.30;;;2.80;;
30472;SDS011;17263;48.160;11.452;2023-12-07T13:07:52;4.13;;;3.00;;
30472;SDS011;17263;48.160;11.452;2023-12-07T13:10:18;3.10;;;2.63;;
30472;SDS011;17263;48.160;11.452;2023-12-07T13:12:46;4.20;;;2.97;;
30472;SDS011;17263;48.160;11.452;2023-12-07T13:15:12;4.80;;;3.27;;
30472;SDS011;17263;48.160;11.452;2023-12-07T13:17:39;3.70;;;3.30;;
30472;SDS011;17263;48.160;11.452;2023-12-07T13:20:09;3.07;;;2.60;;
30472;SDS011;17263;48.160;11.452;2023-12-07T13:22:36;3.83;;;2.60;;
30472;SDS011;17263;48.160;11.452;2023-12-07T13:25:03;4.27;;;2.97;;
30472;SDS011;17263;48.160;11.452;2023-12-07T13:27:31;5.67;;;3.03;;
30472;SDS011;17263;48.160;11.452;2023-12-07T13:30:02;4.53;;;3.10;;
30472;SDS011;17263;48.160;11.452;2023-12-07T13:32:32;3.43;;;2.70;;
30472;SDS011;17263;48.160;11.452;2023-12-07T13:34:59;4.27;;;2.60;;
30472;SDS011;17263;48.160;11.452;2023-12-07T13:37:27;3.07;;;2.77;;
30472;SDS011;17263;48.160;11.452;2023-12-07T13:39:53;3.07;;;2.77;;
30472;SDS011;17263;48.160;11.452;2023-12-07T13:42:26;2.93;;;2.43;;
30472;SDS011;17263;48.160;11.452;2023-12-07T13:44:53;3.27;;;2.97;;
30472;SDS011;17263;48.160;11.452;2023-12-07T13:47:24;3.93;;;2.90;;
30472;SDS011;17263;48.160;11.452;2023-12-07T13:50:02;5.03;;;3.23;;
30472;SDS011;17263;48.160;11.452;2023-12-07T13:52:29;3.80;;;2.83;;
30472;SDS011;17263;48.160;11.452;2023-12-07T13:54:55;3.87;;;2.97;;
30472;SDS011;17263;48.160;11.452;2023-12-07T13:57:22;4.00;;;2.93;;
30472;SDS011;17263;48.160;11.452;2023-12-07T13:59:52;4.30;;;2.90;;
30472;SDS011;17263;48.160;11.452;2023-12-07T14:02:21;3.67;;;3.27;;
30472;SDS011;17263;48.160;11.452;2023-12-07T14:04:48;4.60;;;3.20;;
30472;SDS011;17263;48.160;11.452;2023-12-07T14:07:18;4.00;;;3.57;;
30472;SDS011;17263;48.160;11.452;2023-12-07T14:09:47;3.90;;;3.00;;
30472;SDS011;17263;48.160;11.452;2023-12-07T14:12:14;3.40;;;3.10;;
30472;SDS011;17263;48.160;11.452;2023-12-07T14:14:41;3.87;;;3.00;;
30472;SDS011;17263;48.160;11.452;2023-12-07T14:17:12;3.50;;;3.00;;
30472;SDS011;17263;48.160;11.452;2023-12-07T14:19:39;5.97;;;3.63;;
30472;SDS011;17263;48.160;11.452;2023-12-07T14:22:06;3.63;;;3.13;;
30472;SDS011;17263;48.160;11.452;2023-12-07T14:24:35;5.30;;;3.53;;
30472;SDS011;17263;48.160;11.452;2023-12-07T14:27:02;4.97;;;3.17;;
30472;SDS011;17263;48.160;11.452;2023-12-07T14:29:32;3.60;;;3.00;;